Etusivu
METAR-TAF:

METAR-TAF

Lentoasemat :

Altus, Oklahoma, Yhdysvallat

Leveyspiiri: 34-41-55N, Pituuspiiri: 099-20-17W, korkeus merenpinnasta: 437 m

Tämänhetkinen sää

Tämä raportti tehtiin 13 minuuttia sitten, kello 09.55 UTC
Tuuli 12 kn pohjoisesta
Lämpötila 8°C
Kosteus 66%
Ilmanpaine 1022 hPa
Näkyvyys: 16.1 km
selkeää

METAR: KAXS 060955Z AUTO 35012KT 10SM CLR 08/02 A3017 RMK AO2 T00770020

Aika: 04:08 (10:08 UTC)


TAF: puuttuu

Säähavainnot ja -ennusteet yli 4000 lentoasemalta (METAR- ja TAF-raportit).

Käytössä olevat sääasemat on merkitty karttaan keltaisilla ja punaisilla pisteillä.

Aseta hiiri pisteen päälle nähdäksesi sääaseman nimen.

Klikkaa sitten nähdäksesi säähavainnot ja -ennusteet.

Kartan vaihtaminen: klikkaa mustalla rastilla varustettuja vihreitä pisteitä, niin voit zoomata sisään; viivalla varustettua vihreää pistettä, niin voit zoomata ulos tai vihreitä nuolia, niin pääset viereisille kartoille.


METAR-TAF: